Weather at Halifax / Stanfield International Airport

Public forecast

Using degrees Celsius for public forecast. Weather courtesy of forecast.io.

Current aviation weather report (METAR) for Halifax / Stanfield International Airport

2024/06/14 13:00 (retrieved 33 minutes ago)

CYHZ 141300Z 19012G22KT 15SM FEW018 SCT280 19/15 A2995 RMK CU1CI4 CU TR SLP145 DENSITY ALT 1100FT

Aviation forecast (TAF) for Halifax / Stanfield International Airport

2024/06/14 12:42 (retrieved 51 minutes ago)

TAF CYHZ 141140Z 1412/1512 20010G20KT P6SM FEW010 FM141300 20015G25KT P6SM FEW250 BECMG 1421/1423 21008KT FM150300 21008KT P6SM BKN040 RMK NXT FCST BY 141500Z